Sign in

Advertising

Info

Aviation weather - KDAB

METAR KDAB 231253Z 00000KT 10SM FEW035 FEW140 FEW250 29/23 A3004 RMK AO2 SLP171 T02890233

TAF KDAB 231121Z 2312/2412 00000KT P6SM FEW040 SCT120 SCT250 FM231700 10006KT P6SM VCSH SCT040 FM232200 12008KT P6SM SCT250 FM240100 VRB03KT P6SM SKC

Aviation weather from ADDS. Re-check weather before flight.

-